Hauptseite
METAR-TAF:

METAR-TAF

Flughäfen :

Heeresflugplatz Niederstetten

Niederstetten, Deutschland

Breite: 49-24N, Länge: 009-58E, Höhe: 468 m

Beobachtung

Neuester Wetterbericht von vor 51 Minuten, um 15:20 UTC
Wind 7 kt aus Ost/Südost
Temperatur 25°C
Luftfeuchtigkeit 39%
Luftdruck 1024 hPa
Sichtweite 10 km oder mehr
Leicht bewölkt in der Höhe von 12000 ft

METAR: ETHN 231520Z 11007KT 9999 FEW120 25/10 Q1024 BLACKBLU+

Zeit: 18:11 (16:11 UTC)

Prognose

Neuester Wetterbericht von vor 6 Stunden und 18 Minuten, um 09:53 UTC
Gültige Prognose vom 23 um 08 UTC bis 23 um 17 UTC
Wind 7 kt aus Ost
Sichtweite: 1000 m
Himmel klar

TAF: ETHN 230953Z 2308/2317 09007KT 9999 NSW SKC CANCEL 1000

Wetterbeobachtungen und Prognosen von mehr als 4000 Flughäfen (METAR und TAF Bericht).

Die verfügbaren Stationen werden durch gelbe und rote Markierungen auf der Karte dargestellt.

Führen Sie die Maus auf sie, um den Namen der Station zu sehen.

Darauf klicken, um die Beobachtung von Wetterbeobachtungen und Prognosen zu sehen.

Um die Karte zu ändern : klicken Sie auf den grünen Tasten mit einem schwarzen Kreuz Zum Vergrößern, auf den grünen Button mit einem Gedankenstrich zu verkleinern, oder auf die grünen Pfeile für benachbarte Karten.


METAR-TAF: